sensor_id;sensor_type;location;lat;lon;timestamp;P1;durP1;ratioP1;P2;durP2;ratioP2
26536;SDS011;14204;51.262;5.488;2024-03-29T00:00:06;3.50;;;0.70;;
26536;SDS011;14204;51.262;5.488;2024-03-29T00:02:32;3.58;;;0.60;;
26536;SDS011;14204;51.262;5.488;2024-03-29T00:04:57;3.88;;;1.00;;
26536;SDS011;14204;51.262;5.488;2024-03-29T00:07:23;3.83;;;0.80;;
26536;SDS011;14204;51.262;5.488;2024-03-29T00:09:49;5.00;;;0.75;;
26536;SDS011;14204;51.262;5.488;2024-03-29T00:12:15;5.18;;;0.90;;
26536;SDS011;14204;51.262;5.488;2024-03-29T00:14:40;3.70;;;1.00;;
26536;SDS011;14204;51.262;5.488;2024-03-29T00:17:08;3.17;;;0.82;;
26536;SDS011;14204;51.262;5.488;2024-03-29T00:19:34;2.65;;;0.70;;
26536;SDS011;14204;51.262;5.488;2024-03-29T00:22:00;2.35;;;0.85;;
26536;SDS011;14204;51.262;5.488;2024-03-29T00:24:26;2.60;;;0.88;;
26536;SDS011;14204;51.262;5.488;2024-03-29T00:26:52;4.13;;;0.57;;
26536;SDS011;14204;51.262;5.488;2024-03-29T00:29:18;3.22;;;0.75;;
26536;SDS011;14204;51.262;5.488;2024-03-29T00:31:44;2.97;;;1.05;;
26536;SDS011;14204;51.262;5.488;2024-03-29T00:34:10;2.63;;;0.73;;
26536;SDS011;14204;51.262;5.488;2024-03-29T00:36:36;4.10;;;1.08;;
26536;SDS011;14204;51.262;5.488;2024-03-29T00:39:02;5.28;;;1.15;;
26536;SDS011;14204;51.262;5.488;2024-03-29T00:41:28;6.20;;;1.10;;
26536;SDS011;14204;51.262;5.488;2024-03-29T00:43:53;3.00;;;0.95;;
26536;SDS011;14204;51.262;5.488;2024-03-29T00:46:19;2.78;;;0.57;;
26536;SDS011;14204;51.262;5.488;2024-03-29T00:48:45;5.68;;;1.30;;
26536;SDS011;14204;51.262;5.488;2024-03-29T00:51:12;2.40;;;0.70;;
26536;SDS011;14204;51.262;5.488;2024-03-29T00:53:38;2.45;;;0.90;;
26536;SDS011;14204;51.262;5.488;2024-03-29T00:56:04;2.83;;;0.63;;
26536;SDS011;14204;51.262;5.488;2024-03-29T00:58:30;3.42;;;1.02;;
26536;SDS011;14204;51.262;5.488;2024-03-29T01:00:55;4.60;;;0.80;;
26536;SDS011;14204;51.262;5.488;2024-03-29T01:03:21;4.07;;;0.88;;
26536;SDS011;14204;51.262;5.488;2024-03-29T01:05:46;4.38;;;0.93;;
26536;SDS011;14204;51.262;5.488;2024-03-29T01:08:12;4.80;;;1.33;;
26536;SDS011;14204;51.262;5.488;2024-03-29T01:10:38;2.63;;;1.00;;
26536;SDS011;14204;51.262;5.488;2024-03-29T01:13:03;3.92;;;0.93;;
26536;SDS011;14204;51.262;5.488;2024-03-29T01:15:29;1.13;;;0.50;;
26536;SDS011;14204;51.262;5.488;2024-03-29T01:17:55;2.95;;;1.15;;
26536;SDS011;14204;51.262;5.488;2024-03-29T01:20:20;3.88;;;1.45;;
26536;SDS011;14204;51.262;5.488;2024-03-29T01:22:46;5.88;;;1.00;;
26536;SDS011;14204;51.262;5.488;2024-03-29T01:25:12;5.25;;;0.82;;
26536;SDS011;14204;51.262;5.488;2024-03-29T01:27:39;3.90;;;0.93;;
26536;SDS011;14204;51.262;5.488;2024-03-29T01:30:05;2.90;;;0.88;;
26536;SDS011;14204;51.262;5.488;2024-03-29T01:32:31;5.75;;;1.00;;
26536;SDS011;14204;51.262;5.488;2024-03-29T01:34:57;4.90;;;0.75;;
26536;SDS011;14204;51.262;5.488;2024-03-29T01:37:22;3.88;;;1.23;;
26536;SDS011;14204;51.262;5.488;2024-03-29T01:39:48;2.75;;;1.00;;
26536;SDS011;14204;51.262;5.488;2024-03-29T01:42:14;2.42;;;0.70;;
26536;SDS011;14204;51.262;5.488;2024-03-29T01:44:39;5.13;;;1.08;;
26536;SDS011;14204;51.262;5.488;2024-03-29T01:47:05;2.22;;;1.00;;
26536;SDS011;14204;51.262;5.488;2024-03-29T01:49:31;3.72;;;0.80;;
26536;SDS011;14204;51.262;5.488;2024-03-29T01:51:57;3.00;;;0.60;;
26536;SDS011;14204;51.262;5.488;2024-03-29T01:54:23;5.00;;;0.80;;
26536;SDS011;14204;51.262;5.488;2024-03-29T01:56:48;3.10;;;0.95;;
26536;SDS011;14204;51.262;5.488;2024-03-29T01:59:15;2.42;;;0.80;;
26536;SDS011;14204;51.262;5.488;2024-03-29T02:01:42;3.95;;;0.82;;
26536;SDS011;14204;51.262;5.488;2024-03-29T02:04:08;3.67;;;0.57;;
26536;SDS011;14204;51.262;5.488;2024-03-29T02:06:35;5.35;;;1.00;;
26536;SDS011;14204;51.262;5.488;2024-03-29T02:09:02;2.13;;;0.55;;
26536;SDS011;14204;51.262;5.488;2024-03-29T02:11:28;3.55;;;0.80;;
26536;SDS011;14204;51.262;5.488;2024-03-29T02:13:54;1.73;;;0.60;;
26536;SDS011;14204;51.262;5.488;2024-03-29T02:16:21;3.67;;;0.50;;
26536;SDS011;14204;51.262;5.488;2024-03-29T02:18:47;2.88;;;0.60;;
26536;SDS011;14204;51.262;5.488;2024-03-29T02:21:13;2.28;;;0.90;;
26536;SDS011;14204;51.262;5.488;2024-03-29T02:23:40;5.95;;;1.08;;
26536;SDS011;14204;51.262;5.488;2024-03-29T02:26:09;2.95;;;0.60;;
26536;SDS011;14204;51.262;5.488;2024-03-29T02:28:36;5.70;;;0.70;;
26536;SDS011;14204;51.262;5.488;2024-03-29T02:31:01;2.30;;;1.00;;
26536;SDS011;14204;51.262;5.488;2024-03-29T02:33:28;2.92;;;0.75;;
26536;SDS011;14204;51.262;5.488;2024-03-29T02:35:53;5.80;;;0.82;;
26536;SDS011;14204;51.262;5.488;2024-03-29T02:38:19;3.20;;;1.15;;
26536;SDS011;14204;51.262;5.488;2024-03-29T02:40:45;2.15;;;0.50;;
26536;SDS011;14204;51.262;5.488;2024-03-29T02:43:11;2.78;;;0.73;;
26536;SDS011;14204;51.262;5.488;2024-03-29T02:45:36;2.38;;;0.70;;
26536;SDS011;14204;51.262;5.488;2024-03-29T02:48:02;4.10;;;0.82;;
26536;SDS011;14204;51.262;5.488;2024-03-29T02:50:28;3.22;;;0.63;;
26536;SDS011;14204;51.262;5.488;2024-03-29T02:52:54;3.97;;;0.63;;
26536;SDS011;14204;51.262;5.488;2024-03-29T02:55:19;3.13;;;0.60;;
26536;SDS011;14204;51.262;5.488;2024-03-29T02:57:45;2.80;;;0.65;;
26536;SDS011;14204;51.262;5.488;2024-03-29T03:00:11;1.65;;;0.70;;
26536;SDS011;14204;51.262;5.488;2024-03-29T03:02:40;6.50;;;0.85;;
26536;SDS011;14204;51.262;5.488;2024-03-29T03:05:06;1.75;;;0.50;;
26536;SDS011;14204;51.262;5.488;2024-03-29T03:07:33;2.20;;;0.70;;
26536;SDS011;14204;51.262;5.488;2024-03-29T03:10:18;3.05;;;0.80;;
26536;SDS011;14204;51.262;5.488;2024-03-29T03:13:03;1.40;;;0.55;;
26536;SDS011;14204;51.262;5.488;2024-03-29T03:15:29;1.85;;;0.40;;
26536;SDS011;14204;51.262;5.488;2024-03-29T03:17:55;3.22;;;0.30;;
26536;SDS011;14204;51.262;5.488;2024-03-29T03:20:20;4.00;;;0.50;;
26536;SDS011;14204;51.262;5.488;2024-03-29T03:22:47;1.70;;;0.50;;
26536;SDS011;14204;51.262;5.488;2024-03-29T03:25:16;2.65;;;0.47;;
26536;SDS011;14204;51.262;5.488;2024-03-29T03:27:42;1.42;;;0.70;;
26536;SDS011;14204;51.262;5.488;2024-03-29T03:30:07;3.53;;;0.90;;
26536;SDS011;14204;51.262;5.488;2024-03-29T03:32:34;1.95;;;0.70;;
26536;SDS011;14204;51.262;5.488;2024-03-29T03:34:59;3.60;;;0.70;;
26536;SDS011;14204;51.262;5.488;2024-03-29T03:37:25;3.72;;;0.77;;
26536;SDS011;14204;51.262;5.488;2024-03-29T03:39:50;3.42;;;0.90;;
26536;SDS011;14204;51.262;5.488;2024-03-29T03:42:16;3.17;;;0.50;;
26536;SDS011;14204;51.262;5.488;2024-03-29T03:44:42;2.58;;;0.80;;
26536;SDS011;14204;51.262;5.488;2024-03-29T03:47:08;3.80;;;1.20;;
26536;SDS011;14204;51.262;5.488;2024-03-29T03:49:33;2.42;;;0.93;;
26536;SDS011;14204;51.262;5.488;2024-03-29T03:51:59;1.95;;;0.63;;
26536;SDS011;14204;51.262;5.488;2024-03-29T03:54:25;1.42;;;0.60;;
26536;SDS011;14204;51.262;5.488;2024-03-29T03:56:50;2.88;;;0.65;;
26536;SDS011;14204;51.262;5.488;2024-03-29T03:59:16;2.33;;;0.90;;
26536;SDS011;14204;51.262;5.488;2024-03-29T04:01:41;1.77;;;0.63;;
26536;SDS011;14204;51.262;5.488;2024-03-29T04:04:07;3.05;;;0.70;;
26536;SDS011;14204;51.262;5.488;2024-03-29T04:06:34;3.45;;;0.95;;
26536;SDS011;14204;51.262;5.488;2024-03-29T04:09:00;3.70;;;0.77;;
26536;SDS011;14204;51.262;5.488;2024-03-29T04:11:25;1.88;;;0.82;;
26536;SDS011;14204;51.262;5.488;2024-03-29T04:13:52;2.15;;;0.73;;
26536;SDS011;14204;51.262;5.488;2024-03-29T04:16:17;2.80;;;0.90;;
26536;SDS011;14204;51.262;5.488;2024-03-29T04:18:43;3.88;;;1.02;;
26536;SDS011;14204;51.262;5.488;2024-03-29T04:21:09;2.30;;;0.98;;
26536;SDS011;14204;51.262;5.488;2024-03-29T04:23:34;4.00;;;1.13;;
26536;SDS011;14204;51.262;5.488;2024-03-29T04:26:01;2.90;;;0.98;;
26536;SDS011;14204;51.262;5.488;2024-03-29T04:28:27;3.63;;;0.68;;
26536;SDS011;14204;51.262;5.488;2024-03-29T04:30:55;3.17;;;0.80;;
26536;SDS011;14204;51.262;5.488;2024-03-29T04:33:22;2.65;;;0.70;;
26536;SDS011;14204;51.262;5.488;2024-03-29T04:35:52;2.70;;;0.75;;
26536;SDS011;14204;51.262;5.488;2024-03-29T04:38:21;2.65;;;1.15;;
26536;SDS011;14204;51.262;5.488;2024-03-29T04:40:51;5.03;;;1.33;;
26536;SDS011;14204;51.262;5.488;2024-03-29T04:43:18;1.38;;;0.80;;
26536;SDS011;14204;51.262;5.488;2024-03-29T04:45:44;2.88;;;0.98;;
26536;SDS011;14204;51.262;5.488;2024-03-29T04:48:10;3.22;;;0.80;;
26536;SDS011;14204;51.262;5.488;2024-03-29T04:50:37;1.73;;;0.75;;
26536;SDS011;14204;51.262;5.488;2024-03-29T04:53:02;2.35;;;0.75;;
26536;SDS011;14204;51.262;5.488;2024-03-29T04:55:29;2.45;;;0.90;;
26536;SDS011;14204;51.262;5.488;2024-03-29T04:57:54;2.22;;;0.75;;
26536;SDS011;14204;51.262;5.488;2024-03-29T05:00:20;2.70;;;1.00;;
26536;SDS011;14204;51.262;5.488;2024-03-29T05:02:46;2.38;;;1.33;;
26536;SDS011;14204;51.262;5.488;2024-03-29T05:05:11;3.17;;;1.13;;
26536;SDS011;14204;51.262;5.488;2024-03-29T05:07:37;1.65;;;0.80;;
26536;SDS011;14204;51.262;5.488;2024-03-29T05:10:03;1.95;;;1.10;;
26536;SDS011;14204;51.262;5.488;2024-03-29T05:12:33;2.92;;;1.23;;
26536;SDS011;14204;51.262;5.488;2024-03-29T05:14:58;2.13;;;1.10;;
26536;SDS011;14204;51.262;5.488;2024-03-29T05:17:24;3.60;;;1.67;;
26536;SDS011;14204;51.262;5.488;2024-03-29T05:19:52;1.90;;;0.90;;
26536;SDS011;14204;51.262;5.488;2024-03-29T05:22:18;2.95;;;1.42;;
26536;SDS011;14204;51.262;5.488;2024-03-29T05:24:44;3.42;;;1.00;;
26536;SDS011;14204;51.262;5.488;2024-03-29T05:27:11;5.13;;;0.90;;
26536;SDS011;14204;51.262;5.488;2024-03-29T05:29:36;1.30;;;0.95;;
26536;SDS011;14204;51.262;5.488;2024-03-29T05:32:03;3.30;;;1.00;;
26536;SDS011;14204;51.262;5.488;2024-03-29T05:34:31;1.30;;;0.70;;
26536;SDS011;14204;51.262;5.488;2024-03-29T05:36:57;1.83;;;0.90;;
26536;SDS011;14204;51.262;5.488;2024-03-29T05:39:23;3.20;;;0.70;;
26536;SDS011;14204;51.262;5.488;2024-03-29T05:41:49;3.00;;;0.85;;
26536;SDS011;14204;51.262;5.488;2024-03-29T05:44:14;3.03;;;1.00;;
26536;SDS011;14204;51.262;5.488;2024-03-29T05:46:40;1.00;;;0.63;;
26536;SDS011;14204;51.262;5.488;2024-03-29T05:49:06;5.93;;;0.80;;
26536;SDS011;14204;51.262;5.488;2024-03-29T05:51:33;1.65;;;1.13;;
26536;SDS011;14204;51.262;5.488;2024-03-29T05:53:59;2.40;;;0.80;;
26536;SDS011;14204;51.262;5.488;2024-03-29T05:56:25;3.03;;;1.08;;
26536;SDS011;14204;51.262;5.488;2024-03-29T05:58:51;5.95;;;1.33;;
26536;SDS011;14204;51.262;5.488;2024-03-29T06:01:17;6.20;;;1.00;;
26536;SDS011;14204;51.262;5.488;2024-03-29T06:03:43;4.85;;;1.10;;
26536;SDS011;14204;51.262;5.488;2024-03-29T06:06:08;4.88;;;0.90;;
26536;SDS011;14204;51.262;5.488;2024-03-29T06:08:42;2.63;;;1.23;;
26536;SDS011;14204;51.262;5.488;2024-03-29T06:11:08;6.88;;;1.55;;
26536;SDS011;14204;51.262;5.488;2024-03-29T06:13:34;2.55;;;1.25;;
26536;SDS011;14204;51.262;5.488;2024-03-29T06:16:19;8.25;;;1.40;;
26536;SDS011;14204;51.262;5.488;2024-03-29T06:19:12;5.78;;;1.90;;
26536;SDS011;14204;51.262;5.488;2024-03-29T06:21:38;3.53;;;1.00;;
26536;SDS011;14204;51.262;5.488;2024-03-29T06:24:08;7.15;;;1.40;;
26536;SDS011;14204;51.262;5.488;2024-03-29T06:26:38;3.40;;;1.63;;
26536;SDS011;14204;51.262;5.488;2024-03-29T06:29:04;2.92;;;1.15;;
26536;SDS011;14204;51.262;5.488;2024-03-29T06:31:30;5.35;;;1.67;;
26536;SDS011;14204;51.262;5.488;2024-03-29T06:33:58;3.30;;;1.60;;
26536;SDS011;14204;51.262;5.488;2024-03-29T06:36:24;4.40;;;2.08;;
26536;SDS011;14204;51.262;5.488;2024-03-29T06:38:50;5.30;;;1.83;;
26536;SDS011;14204;51.262;5.488;2024-03-29T06:41:16;4.65;;;1.35;;
26536;SDS011;14204;51.262;5.488;2024-03-29T06:43:42;5.53;;;1.50;;
26536;SDS011;14204;51.262;5.488;2024-03-29T06:46:11;6.15;;;1.70;;
26536;SDS011;14204;51.262;5.488;2024-03-29T06:48:37;4.82;;;1.42;;
26536;SDS011;14204;51.262;5.488;2024-03-29T06:51:03;2.40;;;1.40;;
26536;SDS011;14204;51.262;5.488;2024-03-29T06:53:29;3.33;;;1.55;;
26536;SDS011;14204;51.262;5.488;2024-03-29T06:55:55;6.35;;;1.73;;
26536;SDS011;14204;51.262;5.488;2024-03-29T06:58:27;9.32;;;1.90;;
26536;SDS011;14204;51.262;5.488;2024-03-29T07:00:54;5.28;;;1.38;;
26536;SDS011;14204;51.262;5.488;2024-03-29T07:03:20;3.88;;;1.73;;
26536;SDS011;14204;51.262;5.488;2024-03-29T07:05:46;6.03;;;1.70;;
26536;SDS011;14204;51.262;5.488;2024-03-29T07:08:11;2.33;;;1.40;;
26536;SDS011;14204;51.262;5.488;2024-03-29T07:10:37;3.08;;;1.95;;
26536;SDS011;14204;51.262;5.488;2024-03-29T07:13:03;5.45;;;2.40;;
26536;SDS011;14204;51.262;5.488;2024-03-29T07:15:29;5.65;;;2.28;;
26536;SDS011;14204;51.262;5.488;2024-03-29T07:17:55;5.13;;;2.20;;
26536;SDS011;14204;51.262;5.488;2024-03-29T07:20:23;3.80;;;2.45;;
26536;SDS011;14204;51.262;5.488;2024-03-29T07:22:49;5.78;;;2.33;;
26536;SDS011;14204;51.262;5.488;2024-03-29T07:25:14;4.63;;;3.10;;
26536;SDS011;14204;51.262;5.488;2024-03-29T07:27:40;2.97;;;2.28;;
26536;SDS011;14204;51.262;5.488;2024-03-29T07:30:06;5.28;;;2.60;;
26536;SDS011;14204;51.262;5.488;2024-03-29T07:32:36;4.85;;;2.72;;
26536;SDS011;14204;51.262;5.488;2024-03-29T07:35:02;10.35;;;3.55;;
26536;SDS011;14204;51.262;5.488;2024-03-29T07:37:28;5.78;;;3.35;;
26536;SDS011;14204;51.262;5.488;2024-03-29T07:39:54;5.15;;;2.97;;
26536;SDS011;14204;51.262;5.488;2024-03-29T07:42:19;3.47;;;2.25;;
26536;SDS011;14204;51.262;5.488;2024-03-29T07:44:45;7.43;;;2.63;;
26536;SDS011;14204;51.262;5.488;2024-03-29T07:47:11;3.72;;;2.25;;
26536;SDS011;14204;51.262;5.488;2024-03-29T07:49:39;3.92;;;1.75;;
26536;SDS011;14204;51.262;5.488;2024-03-29T07:52:06;4.45;;;1.50;;
26536;SDS011;14204;51.262;5.488;2024-03-29T07:54:33;3.92;;;1.67;;
26536;SDS011;14204;51.262;5.488;2024-03-29T07:56:59;4.03;;;1.83;;
26536;SDS011;14204;51.262;5.488;2024-03-29T07:59:26;3.63;;;1.48;;
26536;SDS011;14204;51.262;5.488;2024-03-29T08:01:52;3.53;;;1.52;;
26536;SDS011;14204;51.262;5.488;2024-03-29T08:04:19;4.82;;;2.13;;
26536;SDS011;14204;51.262;5.488;2024-03-29T08:06:45;3.85;;;1.67;;
26536;SDS011;14204;51.262;5.488;2024-03-29T08:09:11;3.25;;;1.88;;
26536;SDS011;14204;51.262;5.488;2024-03-29T08:11:39;2.65;;;1.50;;
26536;SDS011;14204;51.262;5.488;2024-03-29T08:14:05;5.75;;;1.85;;
26536;SDS011;14204;51.262;5.488;2024-03-29T08:16:31;4.47;;;1.73;;
26536;SDS011;14204;51.262;5.488;2024-03-29T08:18:57;6.40;;;2.13;;
26536;SDS011;14204;51.262;5.488;2024-03-29T08:21:23;5.38;;;1.40;;
26536;SDS011;14204;51.262;5.488;2024-03-29T08:23:52;5.25;;;1.40;;
26536;SDS011;14204;51.262;5.488;2024-03-29T08:26:20;3.97;;;1.80;;
26536;SDS011;14204;51.262;5.488;2024-03-29T08:28:46;3.78;;;1.60;;
26536;SDS011;14204;51.262;5.488;2024-03-29T08:31:12;4.13;;;1.52;;
26536;SDS011;14204;51.262;5.488;2024-03-29T08:33:45;6.00;;;2.08;;
26536;SDS011;14204;51.262;5.488;2024-03-29T08:36:11;3.25;;;1.40;;
26536;SDS011;14204;51.262;5.488;2024-03-29T08:38:37;3.65;;;1.90;;
26536;SDS011;14204;51.262;5.488;2024-03-29T08:41:07;3.75;;;1.48;;
26536;SDS011;14204;51.262;5.488;2024-03-29T08:43:33;4.18;;;1.60;;
26536;SDS011;14204;51.262;5.488;2024-03-29T08:45:59;6.13;;;2.33;;
26536;SDS011;14204;51.262;5.488;2024-03-29T08:48:26;3.97;;;2.05;;
26536;SDS011;14204;51.262;5.488;2024-03-29T08:50:52;1.92;;;1.58;;
26536;SDS011;14204;51.262;5.488;2024-03-29T08:53:18;4.38;;;1.70;;
26536;SDS011;14204;51.262;5.488;2024-03-29T08:55:46;4.80;;;2.10;;
26536;SDS011;14204;51.262;5.488;2024-03-29T08:58:13;5.38;;;2.03;;
26536;SDS011;14204;51.262;5.488;2024-03-29T09:00:39;3.92;;;1.52;;
26536;SDS011;14204;51.262;5.488;2024-03-29T09:03:05;3.00;;;1.77;;
26536;SDS011;14204;51.262;5.488;2024-03-29T09:05:31;3.95;;;1.75;;
26536;SDS011;14204;51.262;5.488;2024-03-29T09:07:56;3.72;;;1.73;;
26536;SDS011;14204;51.262;5.488;2024-03-29T09:10:23;12.52;;;6.20;;
26536;SDS011;14204;51.262;5.488;2024-03-29T09:12:52;4.28;;;2.20;;
26536;SDS011;14204;51.262;5.488;2024-03-29T09:15:18;6.95;;;2.33;;
26536;SDS011;14204;51.262;5.488;2024-03-29T09:17:44;13.85;;;5.28;;
26536;SDS011;14204;51.262;5.488;2024-03-29T09:20:11;7.00;;;3.35;;
26536;SDS011;14204;51.262;5.488;2024-03-29T09:22:37;13.32;;;6.00;;
26536;SDS011;14204;51.262;5.488;2024-03-29T09:25:04;11.80;;;5.45;;
26536;SDS011;14204;51.262;5.488;2024-03-29T09:27:30;4.50;;;2.15;;
26536;SDS011;14204;51.262;5.488;2024-03-29T09:30:00;4.10;;;1.80;;
26536;SDS011;14204;51.262;5.488;2024-03-29T09:32:26;4.00;;;1.98;;
26536;SDS011;14204;51.262;5.488;2024-03-29T09:34:52;3.60;;;1.95;;
26536;SDS011;14204;51.262;5.488;2024-03-29T09:37:18;2.72;;;1.75;;
26536;SDS011;14204;51.262;5.488;2024-03-29T09:39:45;4.80;;;1.90;;
26536;SDS011;14204;51.262;5.488;2024-03-29T09:42:12;3.83;;;2.08;;
26536;SDS011;14204;51.262;5.488;2024-03-29T09:44:40;3.00;;;2.13;;
26536;SDS011;14204;51.262;5.488;2024-03-29T09:47:09;2.67;;;1.20;;
26536;SDS011;14204;51.262;5.488;2024-03-29T09:49:36;2.92;;;1.58;;
26536;SDS011;14204;51.262;5.488;2024-03-29T09:52:03;2.28;;;1.17;;
26536;SDS011;14204;51.262;5.488;2024-03-29T09:54:29;1.88;;;1.40;;
26536;SDS011;14204;51.262;5.488;2024-03-29T09:56:56;3.53;;;1.35;;
26536;SDS011;14204;51.262;5.488;2024-03-29T09:59:23;2.47;;;1.63;;
26536;SDS011;14204;51.262;5.488;2024-03-29T10:01:51;4.30;;;1.30;;
26536;SDS011;14204;51.262;5.488;2024-03-29T10:04:20;2.80;;;1.27;;
26536;SDS011;14204;51.262;5.488;2024-03-29T10:06:46;1.75;;;1.02;;
26536;SDS011;14204;51.262;5.488;2024-03-29T10:09:15;6.18;;;1.67;;
26536;SDS011;14204;51.262;5.488;2024-03-29T10:11:44;1.48;;;0.93;;
26536;SDS011;14204;51.262;5.488;2024-03-29T10:14:11;1.23;;;1.13;;
26536;SDS011;14204;51.262;5.488;2024-03-29T10:16:36;3.58;;;1.30;;
26536;SDS011;14204;51.262;5.488;2024-03-29T10:19:03;1.52;;;1.10;;
26536;SDS011;14204;51.262;5.488;2024-03-29T10:21:29;2.55;;;1.23;;
26536;SDS011;14204;51.262;5.488;2024-03-29T10:23:55;2.42;;;1.02;;
26536;SDS011;14204;51.262;5.488;2024-03-29T10:26:21;3.38;;;0.93;;
26536;SDS011;14204;51.262;5.488;2024-03-29T10:28:47;2.03;;;0.90;;
26536;SDS011;14204;51.262;5.488;2024-03-29T10:31:14;1.85;;;1.02;;
26536;SDS011;14204;51.262;5.488;2024-03-29T10:33:42;2.70;;;0.90;;
26536;SDS011;14204;51.262;5.488;2024-03-29T10:36:09;3.25;;;1.27;;
26536;SDS011;14204;51.262;5.488;2024-03-29T10:38:37;2.25;;;0.82;;
26536;SDS011;14204;51.262;5.488;2024-03-29T10:41:04;1.50;;;0.60;;
26536;SDS011;14204;51.262;5.488;2024-03-29T10:43:32;1.83;;;0.60;;
26536;SDS011;14204;51.262;5.488;2024-03-29T10:46:01;1.48;;;0.68;;
26536;SDS011;14204;51.262;5.488;2024-03-29T10:48:30;0.50;;;0.50;;
26536;SDS011;14204;51.262;5.488;2024-03-29T10:51:01;0.70;;;0.50;;
26536;SDS011;14204;51.262;5.488;2024-03-29T10:53:27;1.08;;;0.40;;
26536;SDS011;14204;51.262;5.488;2024-03-29T10:55:58;1.55;;;0.55;;
26536;SDS011;14204;51.262;5.488;2024-03-29T10:58:25;0.65;;;0.40;;
26536;SDS011;14204;51.262;5.488;2024-03-29T11:00:59;1.95;;;0.30;;
26536;SDS011;14204;51.262;5.488;2024-03-29T11:03:35;1.10;;;0.40;;
26536;SDS011;14204;51.262;5.488;2024-03-29T11:06:06;0.93;;;0.60;;
26536;SDS011;14204;51.262;5.488;2024-03-29T11:08:33;0.90;;;0.20;;
26536;SDS011;14204;51.262;5.488;2024-03-29T11:11:04;0.65;;;0.35;;
26536;SDS011;14204;51.262;5.488;2024-03-29T11:13:38;1.52;;;0.45;;
26536;SDS011;14204;51.262;5.488;2024-03-29T11:16:12;0.70;;;0.30;;
26536;SDS011;14204;51.262;5.488;2024-03-29T11:18:40;0.98;;;0.47;;
26536;SDS011;14204;51.262;5.488;2024-03-29T11:21:08;1.42;;;0.30;;
26536;SDS011;14204;51.262;5.488;2024-03-29T11:23:36;1.48;;;0.40;;
26536;SDS011;14204;51.262;5.488;2024-03-29T11:26:02;0.98;;;0.25;;
26536;SDS011;14204;51.262;5.488;2024-03-29T11:28:32;3.08;;;0.60;;
26536;SDS011;14204;51.262;5.488;2024-03-29T11:31:03;5.78;;;0.90;;
26536;SDS011;14204;51.262;5.488;2024-03-29T11:36:13;2.70;;;0.40;;
26536;SDS011;14204;51.262;5.488;2024-03-29T11:38:39;1.48;;;0.68;;
26536;SDS011;14204;51.262;5.488;2024-03-29T11:41:06;3.47;;;0.82;;
26536;SDS011;14204;51.262;5.488;2024-03-29T11:43:36;2.03;;;0.70;;
26536;SDS011;14204;51.262;5.488;2024-03-29T11:46:06;1.05;;;0.75;;
26536;SDS011;14204;51.262;5.488;2024-03-29T11:48:33;0.63;;;0.50;;
26536;SDS011;14204;51.262;5.488;2024-03-29T11:51:00;0.28;;;0.20;;
26536;SDS011;14204;51.262;5.488;2024-03-29T11:53:28;2.67;;;0.65;;
26536;SDS011;14204;51.262;5.488;2024-03-29T11:55:57;1.65;;;0.50;;
26536;SDS011;14204;51.262;5.488;2024-03-29T11:58:24;0.40;;;0.40;;
26536;SDS011;14204;51.262;5.488;2024-03-29T12:00:51;1.75;;;0.40;;
26536;SDS011;14204;51.262;5.488;2024-03-29T12:03:18;1.45;;;0.47;;
26536;SDS011;14204;51.262;5.488;2024-03-29T12:05:47;2.30;;;0.57;;
26536;SDS011;14204;51.262;5.488;2024-03-29T12:08:14;1.40;;;0.55;;
26536;SDS011;14204;51.262;5.488;2024-03-29T12:10:40;1.83;;;0.52;;
26536;SDS011;14204;51.262;5.488;2024-03-29T12:13:06;3.70;;;0.50;;
26536;SDS011;14204;51.262;5.488;2024-03-29T12:15:32;0.43;;;0.30;;
26536;SDS011;14204;51.262;5.488;2024-03-29T12:18:00;1.73;;;0.65;;
26536;SDS011;14204;51.262;5.488;2024-03-29T12:20:37;2.33;;;0.52;;
26536;SDS011;14204;51.262;5.488;2024-03-29T12:23:08;2.05;;;0.50;;
26536;SDS011;14204;51.262;5.488;2024-03-29T12:25:35;1.00;;;0.60;;
26536;SDS011;14204;51.262;5.488;2024-03-29T12:28:02;1.35;;;0.75;;
26536;SDS011;14204;51.262;5.488;2024-03-29T12:30:29;1.05;;;0.40;;
26536;SDS011;14204;51.262;5.488;2024-03-29T12:33:05;0.50;;;0.50;;
26536;SDS011;14204;51.262;5.488;2024-03-29T12:35:33;1.30;;;0.50;;
26536;SDS011;14204;51.262;5.488;2024-03-29T12:38:00;4.90;;;0.63;;
26536;SDS011;14204;51.262;5.488;2024-03-29T12:40:30;4.35;;;0.60;;
26536;SDS011;14204;51.262;5.488;2024-03-29T12:43:04;2.72;;;0.93;;
26536;SDS011;14204;51.262;5.488;2024-03-29T12:45:31;2.17;;;0.70;;
26536;SDS011;14204;51.262;5.488;2024-03-29T12:47:57;1.45;;;0.50;;
26536;SDS011;14204;51.262;5.488;2024-03-29T12:50:26;2.97;;;0.60;;
26536;SDS011;14204;51.262;5.488;2024-03-29T12:52:59;2.65;;;0.82;;
26536;SDS011;14204;51.262;5.488;2024-03-29T12:55:27;2.03;;;0.55;;
26536;SDS011;14204;51.262;5.488;2024-03-29T12:57:55;0.65;;;0.55;;
26536;SDS011;14204;51.262;5.488;2024-03-29T13:00:22;2.83;;;0.70;;
26536;SDS011;14204;51.262;5.488;2024-03-29T13:02:48;1.85;;;0.82;;
26536;SDS011;14204;51.262;5.488;2024-03-29T13:05:14;0.80;;;0.60;;
26536;SDS011;14204;51.262;5.488;2024-03-29T13:07:40;1.25;;;0.65;;
26536;SDS011;14204;51.262;5.488;2024-03-29T13:10:07;1.30;;;0.50;;
26536;SDS011;14204;51.262;5.488;2024-03-29T13:12:43;1.50;;;0.60;;
26536;SDS011;14204;51.262;5.488;2024-03-29T13:15:18;1.15;;;0.60;;
26536;SDS011;14204;51.262;5.488;2024-03-29T13:17:46;2.60;;;0.70;;
26536;SDS011;14204;51.262;5.488;2024-03-29T13:20:14;2.42;;;0.57;;
26536;SDS011;14204;51.262;5.488;2024-03-29T13:22:44;2.67;;;0.75;;
26536;SDS011;14204;51.262;5.488;2024-03-29T13:25:14;4.22;;;0.73;;
26536;SDS011;14204;51.262;5.488;2024-03-29T13:27:47;1.88;;;0.60;;
26536;SDS011;14204;51.262;5.488;2024-03-29T13:30:14;1.25;;;0.40;;
26536;SDS011;14204;51.262;5.488;2024-03-29T13:32:41;3.42;;;0.63;;
26536;SDS011;14204;51.262;5.488;2024-03-29T13:35:08;0.65;;;0.30;;
26536;SDS011;14204;51.262;5.488;2024-03-29T13:37:38;1.55;;;0.77;;
26536;SDS011;14204;51.262;5.488;2024-03-29T13:40:08;0.63;;;0.40;;
26536;SDS011;14204;51.262;5.488;2024-03-29T13:42:35;0.98;;;0.68;;
26536;SDS011;14204;51.262;5.488;2024-03-29T13:45:04;2.42;;;0.52;;
26536;SDS011;14204;51.262;5.488;2024-03-29T13:47:34;1.88;;;0.60;;
26536;SDS011;14204;51.262;5.488;2024-03-29T13:50:01;1.48;;;0.80;;
26536;SDS011;14204;51.262;5.488;2024-03-29T13:52:27;2.65;;;0.70;;
26536;SDS011;14204;51.262;5.488;2024-03-29T13:54:53;2.60;;;0.52;;
26536;SDS011;14204;51.262;5.488;2024-03-29T13:57:19;0.98;;;0.43;;
26536;SDS011;14204;51.262;5.488;2024-03-29T13:59:45;0.98;;;0.50;;
26536;SDS011;14204;51.262;5.488;2024-03-29T14:02:12;1.05;;;0.60;;
26536;SDS011;14204;51.262;5.488;2024-03-29T14:04:39;0.73;;;0.50;;
26536;SDS011;14204;51.262;5.488;2024-03-29T14:07:05;1.48;;;0.75;;
26536;SDS011;14204;51.262;5.488;2024-03-29T14:09:36;1.02;;;0.43;;
26536;SDS011;14204;51.262;5.488;2024-03-29T14:12:02;1.05;;;0.50;;
26536;SDS011;14204;51.262;5.488;2024-03-29T14:14:28;0.80;;;0.63;;
26536;SDS011;14204;51.262;5.488;2024-03-29T14:16:55;1.83;;;0.47;;
26536;SDS011;14204;51.262;5.488;2024-03-29T14:19:20;1.75;;;0.50;;
26536;SDS011;14204;51.262;5.488;2024-03-29T14:21:46;1.30;;;0.52;;
26536;SDS011;14204;51.262;5.488;2024-03-29T14:24:12;0.85;;;0.52;;
26536;SDS011;14204;51.262;5.488;2024-03-29T14:26:38;1.10;;;0.50;;
26536;SDS011;14204;51.262;5.488;2024-03-29T14:29:04;2.05;;;0.63;;
26536;SDS011;14204;51.262;5.488;2024-03-29T14:31:31;2.65;;;0.82;;
26536;SDS011;14204;51.262;5.488;2024-03-29T14:33:57;2.05;;;0.43;;
26536;SDS011;14204;51.262;5.488;2024-03-29T14:36:23;1.20;;;0.50;;
26536;SDS011;14204;51.262;5.488;2024-03-29T14:38:49;1.42;;;0.55;;
26536;SDS011;14204;51.262;5.488;2024-03-29T14:41:15;0.77;;;0.40;;
26536;SDS011;14204;51.262;5.488;2024-03-29T14:43:43;1.73;;;0.50;;
26536;SDS011;14204;51.262;5.488;2024-03-29T14:46:11;1.88;;;0.63;;
26536;SDS011;14204;51.262;5.488;2024-03-29T14:48:37;1.75;;;0.57;;